createdAt,value
2023-03-26T00:00:02.563Z,25.48
2023-03-26T00:00:12.563Z,25.48
2023-03-26T00:00:22.681Z,25.47
2023-03-26T00:00:32.685Z,25.48
2023-03-26T00:00:42.836Z,25.47
2023-03-26T00:00:52.849Z,25.47
2023-03-26T00:01:02.843Z,25.46
2023-03-26T00:01:12.834Z,25.46
2023-03-26T00:01:22.860Z,25.47
2023-03-26T00:01:32.921Z,25.47
2023-03-26T00:01:42.938Z,25.46
2023-03-26T00:01:52.965Z,25.46
2023-03-26T00:02:03.094Z,25.46
2023-03-26T00:02:13.042Z,25.46
2023-03-26T00:02:23.194Z,25.46
2023-03-26T00:02:33.237Z,25.46
2023-03-26T00:02:43.217Z,25.45
2023-03-26T00:02:53.270Z,25.46
2023-03-26T00:03:03.422Z,25.46
2023-03-26T00:03:13.421Z,25.44
2023-03-26T00:03:23.492Z,25.44
2023-03-26T00:03:33.502Z,25.44
2023-03-26T00:03:43.543Z,25.43
2023-03-26T00:03:53.548Z,25.44
2023-03-26T00:04:03.661Z,25.44
2023-03-26T00:04:13.673Z,25.42
2023-03-26T00:04:23.786Z,25.42
2023-03-26T00:04:33.868Z,25.42
2023-03-26T00:04:43.974Z,25.43
2023-03-26T00:04:53.986Z,25.42
2023-03-26T00:05:04.040Z,25.41
2023-03-26T00:05:14.037Z,25.42
2023-03-26T00:05:24.123Z,25.42
2023-03-26T00:05:34.188Z,25.42
2023-03-26T00:05:45.498Z,25.43
2023-03-26T00:05:54.426Z,25.41
2023-03-26T00:06:04.325Z,25.42
2023-03-26T00:06:14.345Z,25.41
2023-03-26T00:06:24.468Z,25.41
2023-03-26T00:06:34.507Z,25.41
2023-03-26T00:06:44.517Z,25.42
2023-03-26T00:06:54.522Z,25.42
2023-03-26T00:07:04.646Z,25.42
2023-03-26T00:07:14.787Z,25.41
2023-03-26T00:07:24.846Z,25.41
2023-03-26T00:07:34.839Z,25.41
2023-03-26T00:07:44.837Z,25.41
2023-03-26T00:07:54.859Z,25.41
2023-03-26T00:08:04.851Z,25.40
2023-03-26T00:08:14.854Z,25.40
2023-03-26T00:08:24.989Z,25.39
2023-03-26T00:08:35.014Z,25.39
2023-03-26T00:08:45.108Z,25.38
2023-03-26T00:08:55.332Z,25.38
2023-03-26T00:09:05.452Z,25.38
2023-03-26T00:09:15.452Z,25.38
2023-03-26T00:09:25.716Z,25.38
2023-03-26T00:09:35.711Z,25.38
2023-03-26T00:09:45.707Z,25.37
2023-03-26T00:09:55.723Z,25.37
2023-03-26T00:10:05.735Z,25.36
2023-03-26T00:10:15.729Z,25.35
2023-03-26T00:10:25.729Z,25.36
2023-03-26T00:10:35.728Z,25.35
2023-03-26T00:10:45.856Z,25.35
2023-03-26T00:10:55.846Z,25.35
2023-03-26T00:11:06.127Z,25.34
2023-03-26T00:11:16.128Z,25.34
2023-03-26T00:11:26.141Z,25.34
2023-03-26T00:11:36.142Z,25.34
2023-03-26T00:11:46.202Z,25.34
2023-03-26T00:11:56.190Z,25.33
2023-03-26T00:12:06.321Z,25.33
2023-03-26T00:12:16.323Z,25.30
2023-03-26T00:12:26.474Z,25.29
2023-03-26T00:12:36.476Z,25.23
2023-03-26T00:12:46.596Z,25.16
2023-03-26T00:12:56.603Z,25.09
2023-03-26T00:13:06.607Z,25.02
2023-03-26T00:13:16.605Z,24.93
2023-03-26T00:13:26.727Z,24.80
2023-03-26T00:13:36.798Z,24.74
2023-03-26T00:13:46.824Z,24.67
2023-03-26T00:13:56.862Z,24.59
2023-03-26T00:14:06.897Z,24.53
2023-03-26T00:14:16.906Z,24.46
2023-03-26T00:14:27.170Z,24.39
2023-03-26T00:14:37.171Z,24.34
2023-03-26T00:14:47.286Z,24.27
2023-03-26T00:14:57.544Z,24.20
2023-03-26T00:15:07.560Z,24.12
2023-03-26T00:15:17.575Z,24.06
2023-03-26T00:15:27.590Z,24.00
2023-03-26T00:15:37.595Z,23.95
2023-03-26T00:15:47.730Z,23.90
2023-03-26T00:15:57.757Z,23.84
2023-03-26T00:16:07.779Z,23.76
2023-03-26T00:16:17.818Z,23.71
2023-03-26T00:16:27.954Z,23.66
2023-03-26T00:16:38.183Z,23.59
2023-03-26T00:16:48.237Z,23.54
2023-03-26T00:16:58.294Z,23.48
2023-03-26T00:17:08.329Z,23.43
2023-03-26T00:17:18.337Z,23.39
2023-03-26T00:17:28.497Z,23.38
2023-03-26T00:17:38.524Z,23.36
2023-03-26T00:17:48.593Z,23.36
2023-03-26T00:17:58.646Z,23.34
2023-03-26T00:18:08.693Z,23.34
2023-03-26T00:18:18.959Z,23.34
2023-03-26T00:18:29.095Z,23.34
2023-03-26T00:18:39.096Z,23.33
2023-03-26T00:18:49.364Z,23.33
2023-03-26T00:18:59.359Z,23.31
2023-03-26T00:19:09.482Z,23.31
2023-03-26T00:19:19.743Z,23.33
2023-03-26T00:19:29.744Z,23.35
2023-03-26T00:19:39.755Z,23.38
2023-03-26T00:19:49.764Z,23.41
2023-03-26T00:19:59.792Z,23.45
2023-03-26T00:20:09.791Z,23.49
2023-03-26T00:20:19.798Z,23.53
2023-03-26T00:20:29.808Z,23.57
2023-03-26T00:20:39.817Z,23.61
2023-03-26T00:20:49.828Z,23.64
2023-03-26T00:20:59.840Z,23.67
2023-03-26T00:21:09.857Z,23.72
2023-03-26T00:21:19.858Z,23.76
2023-03-26T00:21:29.975Z,23.78
2023-03-26T00:21:39.994Z,23.82
2023-03-26T00:21:49.986Z,23.85
2023-03-26T00:22:00.000Z,23.87
2023-03-26T00:22:10.251Z,23.91
2023-03-26T00:22:20.247Z,23.93
2023-03-26T00:22:30.371Z,23.96
2023-03-26T00:22:40.643Z,24.00
2023-03-26T00:22:50.776Z,24.02
2023-03-26T00:23:00.784Z,24.04
2023-03-26T00:23:11.034Z,24.08
2023-03-26T00:23:21.034Z,24.09
2023-03-26T00:23:31.082Z,24.11
2023-03-26T00:23:41.102Z,24.13
2023-03-26T00:23:51.105Z,24.15
2023-03-26T00:24:01.117Z,24.18
2023-03-26T00:24:11.131Z,24.21
2023-03-26T00:24:21.144Z,24.22
2023-03-26T00:24:31.146Z,24.24
2023-03-26T00:24:41.157Z,24.25
2023-03-26T00:24:51.163Z,24.28
2023-03-26T00:25:01.160Z,24.28
2023-03-26T00:25:11.162Z,24.30
2023-03-26T00:25:21.162Z,24.31
2023-03-26T00:25:31.169Z,24.34
2023-03-26T00:25:41.185Z,24.35
2023-03-26T00:25:51.291Z,24.36
2023-03-26T00:26:01.239Z,24.37
2023-03-26T00:26:11.292Z,24.39
2023-03-26T00:26:21.287Z,24.38
2023-03-26T00:26:31.406Z,24.40
2023-03-26T00:26:41.419Z,24.41
2023-03-26T00:26:51.436Z,24.42
2023-03-26T00:27:01.425Z,24.43
2023-03-26T00:27:11.677Z,24.44
2023-03-26T00:27:21.675Z,24.45
2023-03-26T00:27:31.687Z,24.45
2023-03-26T00:27:41.699Z,24.47
2023-03-26T00:27:51.725Z,24.48
2023-03-26T00:28:01.730Z,24.48
2023-03-26T00:28:11.730Z,24.48
2023-03-26T00:28:21.746Z,24.49
2023-03-26T00:28:31.753Z,24.49
2023-03-26T00:28:41.792Z,24.50
2023-03-26T00:28:51.797Z,24.51
2023-03-26T00:29:01.792Z,24.52
2023-03-26T00:29:11.934Z,24.52
2023-03-26T00:29:21.935Z,24.53
2023-03-26T00:29:31.965Z,24.54
2023-03-26T00:29:41.966Z,24.54
2023-03-26T00:29:52.086Z,24.55
2023-03-26T00:30:02.217Z,24.55
2023-03-26T00:30:12.336Z,24.56
2023-03-26T00:30:22.336Z,24.56
2023-03-26T00:30:32.624Z,24.57
2023-03-26T00:30:42.665Z,24.56
2023-03-26T00:30:52.735Z,24.57
2023-03-26T00:31:02.823Z,24.57
2023-03-26T00:31:12.844Z,24.58
2023-03-26T00:31:22.923Z,24.57
2023-03-26T00:31:33.015Z,24.58
2023-03-26T00:31:43.016Z,24.58
2023-03-26T00:31:53.023Z,24.59
2023-03-26T00:32:03.018Z,24.59
2023-03-26T00:32:13.272Z,24.60
2023-03-26T00:32:23.270Z,24.60
2023-03-26T00:32:33.412Z,24.61
2023-03-26T00:32:43.704Z,24.61
2023-03-26T00:32:54.158Z,24.57
2023-03-26T00:33:03.881Z,24.59
2023-03-26T00:33:13.890Z,24.59
2023-03-26T00:33:23.885Z,24.60
2023-03-26T00:33:34.005Z,24.60
2023-03-26T00:33:44.007Z,24.61
2023-03-26T00:33:54.124Z,24.61
2023-03-26T00:34:04.123Z,24.61
2023-03-26T00:34:14.259Z,24.62
2023-03-26T00:34:24.254Z,24.62
2023-03-26T00:34:34.390Z,24.62
2023-03-26T00:34:44.653Z,24.62
2023-03-26T00:34:54.664Z,24.62
2023-03-26T00:35:04.679Z,24.62
2023-03-26T00:35:14.671Z,24.63
2023-03-26T00:35:24.674Z,24.63
2023-03-26T00:35:34.694Z,24.63
2023-03-26T00:35:44.723Z,24.63
2023-03-26T00:35:54.940Z,24.64
2023-03-26T00:36:04.816Z,24.63
2023-03-26T00:36:14.924Z,24.64
2023-03-26T00:36:25.374Z,24.64
2023-03-26T00:36:35.222Z,24.64
2023-03-26T00:36:45.221Z,24.64
2023-03-26T00:36:55.602Z,24.65
2023-03-26T00:37:05.602Z,24.64
2023-03-26T00:37:15.729Z,24.64
2023-03-26T00:37:25.980Z,24.64
2023-03-26T00:37:36.008Z,24.65
2023-03-26T00:37:46.006Z,24.65
2023-03-26T00:37:56.005Z,24.65
2023-03-26T00:38:06.131Z,24.64
2023-03-26T00:38:16.144Z,24.64
2023-03-26T00:38:26.156Z,24.65
2023-03-26T00:38:36.157Z,24.66
2023-03-26T00:38:46.173Z,24.66
2023-03-26T00:38:56.187Z,24.66
2023-03-26T00:39:06.448Z,24.67
2023-03-26T00:39:16.444Z,24.66
2023-03-26T00:39:26.445Z,24.67
2023-03-26T00:39:36.449Z,24.67
2023-03-26T00:39:46.457Z,24.67
2023-03-26T00:39:56.479Z,24.67
2023-03-26T00:40:06.545Z,24.62
2023-03-26T00:40:16.810Z,24.64
2023-03-26T00:40:26.924Z,24.65
2023-03-26T00:40:36.923Z,24.65
2023-03-26T00:40:47.181Z,24.66
2023-03-26T00:40:57.190Z,24.67
2023-03-26T00:41:07.199Z,24.67
2023-03-26T00:41:17.199Z,24.68
2023-03-26T00:41:27.321Z,24.68
2023-03-26T00:41:37.508Z,24.69
2023-03-26T00:41:47.378Z,24.69
2023-03-26T00:41:57.410Z,24.70
2023-03-26T00:42:07.411Z,24.70
2023-03-26T00:42:17.409Z,24.69
2023-03-26T00:42:27.666Z,24.70
2023-03-26T00:42:37.680Z,24.70
2023-03-26T00:42:47.677Z,24.71
2023-03-26T00:42:57.668Z,24.71
2023-03-26T00:43:07.791Z,24.71
2023-03-26T00:43:17.798Z,24.71
2023-03-26T00:43:27.910Z,24.71
2023-03-26T00:43:37.915Z,24.71
2023-03-26T00:43:48.039Z,24.71
2023-03-26T00:43:58.031Z,24.71
2023-03-26T00:44:08.040Z,24.72
2023-03-26T00:44:18.039Z,24.72
2023-03-26T00:44:28.161Z,24.72
2023-03-26T00:44:38.413Z,24.72
2023-03-26T00:44:48.420Z,24.73
2023-03-26T00:44:58.424Z,24.73
2023-03-26T00:45:08.805Z,24.73
2023-03-26T00:45:18.805Z,24.73
2023-03-26T00:45:28.810Z,24.73
2023-03-26T00:45:38.812Z,24.74
2023-03-26T00:45:48.865Z,24.74
2023-03-26T00:45:58.906Z,24.74
2023-03-26T00:46:08.916Z,24.74
2023-03-26T00:46:19.020Z,24.74
2023-03-26T00:46:29.074Z,24.75
2023-03-26T00:46:39.161Z,24.74
2023-03-26T00:46:49.180Z,24.74
2023-03-26T00:46:59.188Z,24.74
2023-03-26T00:47:09.199Z,24.74
2023-03-26T00:47:19.204Z,24.74
2023-03-26T00:47:29.252Z,24.75
2023-03-26T00:47:39.334Z,24.74
2023-03-26T00:47:49.372Z,24.74
2023-03-26T00:47:59.415Z,24.73
2023-03-26T00:48:09.416Z,24.74
2023-03-26T00:48:19.406Z,24.74
2023-03-26T00:48:43.894Z,24.73
2023-03-26T00:48:44.910Z,24.68
2023-03-26T00:48:49.662Z,24.65
2023-03-26T00:48:59.701Z,24.68
2023-03-26T00:49:09.718Z,24.70
2023-03-26T00:49:19.724Z,24.71
2023-03-26T00:49:29.846Z,24.71
2023-03-26T00:49:39.846Z,24.71
2023-03-26T00:49:49.964Z,24.72
2023-03-26T00:49:59.974Z,24.72
2023-03-26T00:50:10.102Z,24.72
2023-03-26T00:50:20.102Z,24.73
2023-03-26T00:50:30.106Z,24.73
2023-03-26T00:50:40.106Z,24.74
2023-03-26T00:50:50.253Z,24.74
2023-03-26T00:51:00.250Z,24.74
2023-03-26T00:51:10.250Z,24.74
2023-03-26T00:51:20.252Z,24.75
2023-03-26T00:51:30.376Z,24.75
2023-03-26T00:51:40.378Z,24.75
2023-03-26T00:51:50.502Z,24.76
2023-03-26T00:52:00.504Z,24.75
2023-03-26T00:52:10.623Z,24.76
2023-03-26T00:52:20.879Z,24.77
2023-03-26T00:52:31.014Z,24.76
2023-03-26T00:52:41.023Z,24.77
2023-03-26T00:52:51.283Z,24.77
2023-03-26T00:53:01.285Z,24.77
2023-03-26T00:53:11.291Z,24.77
2023-03-26T00:53:21.287Z,24.77
2023-03-26T00:53:31.414Z,24.78
2023-03-26T00:53:41.417Z,24.78
2023-03-26T00:53:51.420Z,24.78
2023-03-26T00:54:01.450Z,24.77
2023-03-26T00:54:11.447Z,24.78
2023-03-26T00:54:21.454Z,24.78
2023-03-26T00:54:31.708Z,24.78
2023-03-26T00:54:41.711Z,24.78
2023-03-26T00:54:51.718Z,24.78
2023-03-26T00:55:01.727Z,24.79
2023-03-26T00:55:11.747Z,24.78
2023-03-26T00:55:21.761Z,24.79
2023-03-26T00:55:31.755Z,24.79
2023-03-26T00:55:41.775Z,24.78
2023-03-26T00:55:51.856Z,24.79
2023-03-26T00:56:01.800Z,24.79
2023-03-26T00:56:11.825Z,24.79
2023-03-26T00:56:21.871Z,24.79
2023-03-26T00:56:31.954Z,24.78
2023-03-26T00:56:41.994Z,24.79
2023-03-26T00:56:52.049Z,24.79
2023-03-26T00:57:02.134Z,24.79
2023-03-26T00:57:12.898Z,24.79
2023-03-26T00:57:34.594Z,24.78
2023-03-26T00:57:35.737Z,24.73
2023-03-26T00:57:42.337Z,24.70
2023-03-26T00:57:52.454Z,24.72
2023-03-26T00:58:02.454Z,24.74
2023-03-26T00:58:12.580Z,24.75
2023-03-26T00:58:22.576Z,24.76
2023-03-26T00:58:32.710Z,24.76
2023-03-26T00:58:42.708Z,24.77
2023-03-26T00:58:52.742Z,24.76
2023-03-26T00:59:02.734Z,24.77
2023-03-26T00:59:12.859Z,24.77
2023-03-26T00:59:23.119Z,24.78
2023-03-26T00:59:33.235Z,24.77
2023-03-26T00:59:43.251Z,24.77
2023-03-26T00:59:53.497Z,24.78
2023-03-26T01:00:03.519Z,24.77
2023-03-26T01:00:13.498Z,24.78
2023-03-26T01:00:23.507Z,24.77
2023-03-26T01:00:33.624Z,24.78
2023-03-26T01:00:45.135Z,24.78
2023-03-26T01:00:53.707Z,24.76
2023-03-26T01:01:03.790Z,24.77
2023-03-26T01:01:13.976Z,24.77
2023-03-26T01:01:23.848Z,24.78
2023-03-26T01:01:33.884Z,24.78
2023-03-26T01:01:44.056Z,24.78
2023-03-26T01:01:54.337Z,24.79
2023-03-26T01:02:04.339Z,24.79
2023-03-26T01:02:14.373Z,24.79
2023-03-26T01:02:24.401Z,24.79
2023-03-26T01:02:34.513Z,24.79
2023-03-26T01:02:44.576Z,24.79
2023-03-26T01:02:54.583Z,24.80
2023-03-26T01:03:04.672Z,24.80
2023-03-26T01:03:24.801Z,24.80
2023-03-26T01:03:26.744Z,24.75
2023-03-26T01:03:34.794Z,24.74
2023-03-26T01:03:53.544Z,24.75
2023-03-26T01:04:07.281Z,24.71
2023-03-26T01:04:09.077Z,24.68
2023-03-26T01:04:14.953Z,24.67
2023-03-26T01:04:25.314Z,24.70
2023-03-26T01:04:35.426Z,24.72
2023-03-26T01:04:45.313Z,24.73
2023-03-26T01:04:55.691Z,24.74
2023-03-26T01:05:05.609Z,24.74
2023-03-26T01:05:15.666Z,24.74
2023-03-26T01:05:25.764Z,24.75
2023-03-26T01:05:35.791Z,24.75
2023-03-26T01:05:45.818Z,24.75
2023-03-26T01:05:55.981Z,24.76
2023-03-26T01:06:05.923Z,24.76
2023-03-26T01:06:15.925Z,24.76
2023-03-26T01:06:25.945Z,24.77
2023-03-26T01:06:36.432Z,24.77
2023-03-26T01:06:46.067Z,24.77
2023-03-26T01:06:56.065Z,24.78
2023-03-26T01:07:06.098Z,24.78
2023-03-26T01:07:16.094Z,24.77
2023-03-26T01:07:26.111Z,24.78
2023-03-26T01:07:36.111Z,24.78
2023-03-26T01:07:46.119Z,24.79
2023-03-26T01:07:56.129Z,24.78
2023-03-26T01:08:06.134Z,24.79
2023-03-26T01:08:16.254Z,24.80
2023-03-26T01:08:26.306Z,24.80
2023-03-26T01:08:36.315Z,24.79
2023-03-26T01:08:46.306Z,24.80
2023-03-26T01:08:56.421Z,24.80
2023-03-26T01:09:06.555Z,24.81
2023-03-26T01:09:16.620Z,24.81
2023-03-26T01:09:26.637Z,24.81
2023-03-26T01:09:37.028Z,24.81
2023-03-26T01:09:47.033Z,24.82
2023-03-26T01:09:57.040Z,24.81
2023-03-26T01:10:07.062Z,24.82
2023-03-26T01:10:17.066Z,24.82
2023-03-26T01:10:27.072Z,24.82
2023-03-26T01:10:37.085Z,24.82
2023-03-26T01:10:47.092Z,24.82
2023-03-26T01:10:57.219Z,24.82
2023-03-26T01:11:07.227Z,24.82
2023-03-26T01:11:17.479Z,24.82
2023-03-26T01:11:27.479Z,24.83
2023-03-26T01:11:37.604Z,24.82
2023-03-26T01:11:47.876Z,24.82
2023-03-26T01:11:57.876Z,24.83
2023-03-26T01:12:07.927Z,24.83
2023-03-26T01:12:17.922Z,24.83
2023-03-26T01:12:27.928Z,24.83
2023-03-26T01:12:38.070Z,24.83
2023-03-26T01:12:48.086Z,24.83
2023-03-26T01:12:58.193Z,24.84
2023-03-26T01:13:08.195Z,24.84
2023-03-26T01:13:18.209Z,24.84
2023-03-26T01:13:28.351Z,24.84
2023-03-26T01:13:38.373Z,24.84
2023-03-26T01:13:48.392Z,24.84
2023-03-26T01:13:58.398Z,24.84
2023-03-26T01:14:08.414Z,24.84
2023-03-26T01:14:18.563Z,24.84
2023-03-26T01:14:28.549Z,24.84
2023-03-26T01:14:38.556Z,24.84
2023-03-26T01:14:49.609Z,24.84
2023-03-26T01:14:58.669Z,24.83
2023-03-26T01:15:08.677Z,24.83
2023-03-26T01:15:18.677Z,24.83
2023-03-26T01:15:28.753Z,24.84
2023-03-26T01:15:38.839Z,24.83
2023-03-26T01:15:48.976Z,24.84
2023-03-26T01:15:59.017Z,24.84
2023-03-26T01:16:09.195Z,24.84
2023-03-26T01:16:19.463Z,24.84
2023-03-26T01:16:29.459Z,24.84
2023-03-26T01:16:39.581Z,24.85
2023-03-26T01:16:50.007Z,24.84
2023-03-26T01:16:59.872Z,24.85
2023-03-26T01:17:09.872Z,24.85
2023-03-26T01:17:19.879Z,24.85
2023-03-26T01:17:29.932Z,24.86
2023-03-26T01:17:39.946Z,24.85
2023-03-26T01:17:49.957Z,24.86
2023-03-26T01:17:59.982Z,24.86
2023-03-26T01:18:09.973Z,24.85
2023-03-26T01:18:20.128Z,24.85
2023-03-26T01:18:30.379Z,24.86
2023-03-26T01:18:40.382Z,24.85
2023-03-26T01:18:50.399Z,24.86
2023-03-26T01:19:00.791Z,24.86
2023-03-26T01:19:10.793Z,24.85
2023-03-26T01:19:20.809Z,24.85
2023-03-26T01:19:30.809Z,24.85
2023-03-26T01:19:40.837Z,24.85
2023-03-26T01:19:50.842Z,24.86
2023-03-26T01:20:00.843Z,24.85
2023-03-26T01:20:10.860Z,24.85
2023-03-26T01:20:20.892Z,24.86
2023-03-26T01:20:31.008Z,24.85
2023-03-26T01:20:41.289Z,24.85
2023-03-26T01:20:51.291Z,24.85
2023-03-26T01:21:01.304Z,24.86
2023-03-26T01:21:11.312Z,24.86
2023-03-26T01:21:21.328Z,24.85
2023-03-26T01:21:31.334Z,24.86
2023-03-26T01:21:41.348Z,24.85
2023-03-26T01:21:51.357Z,24.86
2023-03-26T01:22:01.386Z,24.85
2023-03-26T01:22:11.418Z,24.85
2023-03-26T01:22:21.436Z,24.86
2023-03-26T01:22:31.436Z,24.86
2023-03-26T01:22:41.446Z,24.86
2023-03-26T01:22:51.452Z,24.86
2023-03-26T01:23:01.456Z,24.86
2023-03-26T01:23:11.578Z,24.86
2023-03-26T01:23:21.591Z,24.86
2023-03-26T01:23:31.852Z,24.86
2023-03-26T01:23:41.869Z,24.86
2023-03-26T01:23:51.867Z,24.87
2023-03-26T01:24:01.876Z,24.86
2023-03-26T01:24:11.888Z,24.86
2023-03-26T01:24:21.900Z,24.87
2023-03-26T01:24:32.048Z,24.86
2023-03-26T01:24:42.050Z,24.87
2023-03-26T01:24:52.052Z,24.87
2023-03-26T01:25:02.053Z,24.87
2023-03-26T01:25:12.321Z,24.87
2023-03-26T01:25:22.321Z,24.87
2023-03-26T01:25:32.344Z,24.88
2023-03-26T01:25:42.341Z,24.87
2023-03-26T01:25:52.733Z,24.87
2023-03-26T01:26:02.523Z,24.87
2023-03-26T01:26:12.525Z,24.87
2023-03-26T01:26:22.528Z,24.87
2023-03-26T01:26:32.536Z,24.87
2023-03-26T01:26:42.539Z,24.87
2023-03-26T01:26:52.811Z,24.87
2023-03-26T01:27:02.817Z,24.86
2023-03-26T01:27:12.850Z,24.87
2023-03-26T01:27:22.826Z,24.87
2023-03-26T01:27:32.960Z,24.87
2023-03-26T01:27:42.969Z,24.87
2023-03-26T01:27:52.975Z,24.87
2023-03-26T01:28:02.985Z,24.87
2023-03-26T01:28:12.995Z,24.87
2023-03-26T01:28:22.999Z,24.88
2023-03-26T01:28:33.275Z,24.88
2023-03-26T01:28:43.296Z,24.87
2023-03-26T01:28:53.287Z,24.87
2023-03-26T01:29:03.303Z,24.87
2023-03-26T01:29:13.429Z,24.87
2023-03-26T01:29:23.430Z,24.87
2023-03-26T01:29:33.552Z,24.86
2023-03-26T01:29:43.572Z,24.87
2023-03-26T01:29:53.679Z,24.87
2023-03-26T01:30:03.694Z,24.87
2023-03-26T01:30:13.707Z,24.86
2023-03-26T01:30:23.731Z,24.87
2023-03-26T01:30:33.780Z,24.87
2023-03-26T01:30:43.795Z,24.87
2023-03-26T01:30:53.790Z,24.88
2023-03-26T01:31:03.804Z,24.88
2023-03-26T01:31:13.822Z,24.87
2023-03-26T01:31:23.822Z,24.88
2023-03-26T01:31:33.827Z,24.88
2023-03-26T01:31:43.835Z,24.89
2023-03-26T01:31:53.855Z,24.88
2023-03-26T01:32:03.878Z,24.88
2023-03-26T01:32:13.928Z,24.88
2023-03-26T01:32:24.075Z,24.88
2023-03-26T01:32:34.222Z,24.88
2023-03-26T01:32:44.280Z,24.88
2023-03-26T01:32:54.260Z,24.88
2023-03-26T01:33:04.461Z,24.88
2023-03-26T01:33:14.577Z,24.88
2023-03-26T01:33:24.651Z,24.88
2023-03-26T01:33:35.021Z,24.87
2023-03-26T01:33:45.071Z,24.87
2023-03-26T01:33:55.060Z,24.87
2023-03-26T01:34:05.314Z,24.88
2023-03-26T01:34:15.436Z,24.87
2023-03-26T01:34:25.436Z,24.88
2023-03-26T01:34:35.688Z,24.88
2023-03-26T01:34:45.690Z,24.88
2023-03-26T01:34:55.702Z,24.89
2023-03-26T01:35:05.697Z,24.88
2023-03-26T01:35:15.717Z,24.88
2023-03-26T01:35:25.734Z,24.88
2023-03-26T01:35:35.795Z,24.88
2023-03-26T01:35:45.913Z,24.88
2023-03-26T01:35:56.043Z,24.88
2023-03-26T01:36:05.951Z,24.88
2023-03-26T01:36:16.201Z,24.88
2023-03-26T01:36:26.215Z,24.88
2023-03-26T01:36:36.221Z,24.89
2023-03-26T01:36:46.234Z,24.88
2023-03-26T01:36:56.264Z,24.89
2023-03-26T01:37:06.252Z,24.88
2023-03-26T01:37:16.265Z,24.88
2023-03-26T01:37:26.274Z,24.89
2023-03-26T01:37:36.399Z,24.89
2023-03-26T01:37:46.397Z,24.89
2023-03-26T01:37:56.686Z,24.89
2023-03-26T01:38:06.679Z,24.89
2023-03-26T01:38:16.689Z,24.89
2023-03-26T01:38:26.701Z,24.89
2023-03-26T01:38:36.724Z,24.90
2023-03-26T01:38:46.833Z,24.89
2023-03-26T01:38:56.995Z,24.89
2023-03-26T01:39:06.874Z,24.89
2023-03-26T01:39:16.886Z,24.89
2023-03-26T01:39:26.892Z,24.89
2023-03-26T01:39:36.910Z,24.89
2023-03-26T01:39:46.915Z,24.89
2023-03-26T01:39:56.932Z,24.89
2023-03-26T01:40:06.955Z,24.89
2023-03-26T01:40:16.972Z,24.90
2023-03-26T01:40:26.998Z,24.90
2023-03-26T01:40:36.987Z,24.90
2023-03-26T01:40:47.325Z,24.90
2023-03-26T01:40:57.011Z,24.90
2023-03-26T01:41:07.037Z,24.90
2023-03-26T01:41:17.034Z,24.90
2023-03-26T01:41:27.036Z,24.89
2023-03-26T01:41:37.092Z,24.91
2023-03-26T01:41:47.109Z,24.90
2023-03-26T01:41:57.123Z,24.90
2023-03-26T01:42:07.128Z,24.90
2023-03-26T01:42:17.157Z,24.90
2023-03-26T01:42:27.147Z,24.89
2023-03-26T01:42:37.156Z,24.89
2023-03-26T01:42:47.164Z,24.89
2023-03-26T01:42:57.171Z,24.89
2023-03-26T01:43:07.173Z,24.89
2023-03-26T01:43:17.192Z,24.89
2023-03-26T01:43:27.215Z,24.90
2023-03-26T01:43:37.218Z,24.90
2023-03-26T01:43:47.243Z,24.90
2023-03-26T01:43:57.241Z,24.89
2023-03-26T01:44:07.240Z,24.90
2023-03-26T01:44:17.251Z,24.90
2023-03-26T01:44:27.260Z,24.90
2023-03-26T01:44:37.275Z,24.90
2023-03-26T01:44:47.283Z,24.90
2023-03-26T01:44:57.319Z,24.90
2023-03-26T01:45:07.331Z,24.90
2023-03-26T01:45:17.340Z,24.90
2023-03-26T01:45:27.371Z,24.90
2023-03-26T01:45:37.498Z,24.91
2023-03-26T01:45:47.504Z,24.90
2023-03-26T01:45:57.501Z,24.90
2023-03-26T01:46:07.838Z,24.90
2023-03-26T01:46:17.871Z,24.90
2023-03-26T01:46:27.902Z,24.90
2023-03-26T01:46:38.033Z,24.90
2023-03-26T01:46:48.097Z,24.90
2023-03-26T01:46:58.128Z,24.90
2023-03-26T01:47:08.164Z,24.90
2023-03-26T01:47:18.292Z,24.90
2023-03-26T01:47:28.319Z,24.91
2023-03-26T01:47:38.334Z,24.90
2023-03-26T01:47:48.676Z,24.91
2023-03-26T01:47:58.706Z,24.91
2023-03-26T01:48:08.707Z,24.90
2023-03-26T01:48:18.725Z,24.91
2023-03-26T01:48:28.726Z,24.91
2023-03-26T01:48:38.860Z,24.90
2023-03-26T01:48:48.876Z,24.90
2023-03-26T01:48:59.004Z,24.90
2023-03-26T01:49:09.022Z,24.90
2023-03-26T01:49:19.032Z,24.90
2023-03-26T01:49:29.154Z,24.91
2023-03-26T01:49:39.170Z,24.90
2023-03-26T01:49:49.173Z,24.91
2023-03-26T01:49:59.194Z,24.90
2023-03-26T01:50:09.210Z,24.90
2023-03-26T01:50:19.201Z,24.91
2023-03-26T01:50:29.207Z,24.90
2023-03-26T01:50:39.245Z,24.90
2023-03-26T01:50:49.279Z,24.90
2023-03-26T01:50:59.276Z,24.90
2023-03-26T01:51:09.322Z,24.90
2023-03-26T01:51:19.308Z,24.89
2023-03-26T01:51:29.310Z,24.90
2023-03-26T01:51:39.318Z,24.90
2023-03-26T01:51:49.325Z,24.90
2023-03-26T01:51:59.451Z,24.90
2023-03-26T01:52:09.447Z,24.90
2023-03-26T01:52:19.718Z,24.90
2023-03-26T01:52:29.718Z,24.91
2023-03-26T01:52:39.713Z,24.91
2023-03-26T01:52:49.716Z,24.91
2023-03-26T01:52:59.724Z,24.90
2023-03-26T01:53:09.732Z,24.92
2023-03-26T01:53:19.736Z,24.90
2023-03-26T01:53:29.744Z,24.90
2023-03-26T01:53:39.746Z,24.90
2023-03-26T01:53:49.764Z,24.91
2023-03-26T01:53:59.766Z,24.91
2023-03-26T01:54:09.770Z,24.90
2023-03-26T01:54:19.895Z,24.91
2023-03-26T01:54:29.907Z,24.91
2023-03-26T01:54:39.910Z,24.92
2023-03-26T01:54:49.912Z,24.92
2023-03-26T01:55:00.036Z,24.91
2023-03-26T01:55:10.159Z,24.92
2023-03-26T01:55:20.285Z,24.91
2023-03-26T01:55:30.296Z,24.92
2023-03-26T01:55:40.552Z,24.92
2023-03-26T01:55:50.565Z,24.91
2023-03-26T01:56:00.560Z,24.91
2023-03-26T01:56:10.558Z,24.91
2023-03-26T01:56:20.567Z,24.91
2023-03-26T01:56:30.622Z,24.91
2023-03-26T01:56:40.714Z,24.91
2023-03-26T01:56:50.821Z,24.92
2023-03-26T01:57:00.764Z,24.91
2023-03-26T01:57:10.780Z,24.92
2023-03-26T01:57:20.832Z,24.92
2023-03-26T01:57:30.820Z,24.91
2023-03-26T01:57:40.940Z,24.92
2023-03-26T01:57:50.947Z,24.92
2023-03-26T01:58:00.960Z,24.91
2023-03-26T01:58:10.973Z,24.91
2023-03-26T01:58:20.970Z,24.90
2023-03-26T01:58:31.241Z,24.90
2023-03-26T01:58:41.363Z,24.91
2023-03-26T01:58:51.369Z,24.91
2023-03-26T01:59:01.625Z,24.90
2023-03-26T01:59:11.624Z,24.91
2023-03-26T01:59:21.629Z,24.91
2023-03-26T01:59:31.648Z,24.91
2023-03-26T01:59:41.661Z,24.90
2023-03-26T01:59:51.659Z,24.91
2023-03-26T02:00:01.781Z,24.91
2023-03-26T02:00:11.818Z,24.90
2023-03-26T02:00:21.803Z,24.91
2023-03-26T02:00:31.804Z,24.90
2023-03-26T02:00:42.056Z,24.91
2023-03-26T02:00:52.062Z,24.90
2023-03-26T02:01:02.109Z,24.91
2023-03-26T02:01:12.112Z,24.90
2023-03-26T02:01:22.128Z,24.90
2023-03-26T02:01:32.146Z,24.90
2023-03-26T02:01:42.239Z,24.90
2023-03-26T02:01:52.308Z,24.90
2023-03-26T02:02:02.299Z,24.90
2023-03-26T02:02:12.417Z,24.90
2023-03-26T02:02:22.556Z,24.90
2023-03-26T02:02:32.617Z,24.90
2023-03-26T02:02:42.729Z,24.90
2023-03-26T02:02:52.697Z,24.91
2023-03-26T02:03:02.680Z,24.91
2023-03-26T02:03:12.798Z,24.90
2023-03-26T02:03:22.886Z,24.90
2023-03-26T02:03:33.133Z,24.90
2023-03-26T02:03:43.148Z,24.91
2023-03-26T02:03:53.143Z,24.91
2023-03-26T02:04:03.156Z,24.91
2023-03-26T02:04:13.160Z,24.91
2023-03-26T02:04:23.169Z,24.91
2023-03-26T02:04:33.181Z,24.90
2023-03-26T02:04:43.189Z,24.90
2023-03-26T02:04:53.406Z,24.90
2023-03-26T02:05:03.272Z,24.90
2023-03-26T02:05:13.316Z,24.90
2023-03-26T02:05:23.333Z,24.91
2023-03-26T02:05:33.340Z,24.90
2023-03-26T02:05:43.347Z,24.90
2023-03-26T02:05:53.686Z,24.91
2023-03-26T02:06:03.460Z,24.91
2023-03-26T02:06:13.578Z,24.91
2023-03-26T02:06:23.724Z,24.90
2023-03-26T02:06:33.835Z,24.90
2023-03-26T02:06:43.843Z,24.90
2023-03-26T02:06:54.102Z,24.90
2023-03-26T02:07:04.101Z,24.90
2023-03-26T02:07:14.104Z,24.90
2023-03-26T02:07:24.105Z,24.90
2023-03-26T02:07:34.266Z,24.90
2023-03-26T02:07:44.267Z,24.90
2023-03-26T02:07:54.389Z,24.90
2023-03-26T02:08:04.393Z,24.90
2023-03-26T02:08:14.548Z,24.90
2023-03-26T02:08:24.539Z,24.90
2023-03-26T02:08:34.544Z,24.90
2023-03-26T02:08:44.555Z,24.90
2023-03-26T02:08:54.673Z,24.90
2023-03-26T02:09:04.952Z,24.90
2023-03-26T02:09:14.975Z,24.90
2023-03-26T02:09:24.974Z,24.90